McKinney's Hourly Summary for Thursday, May 10, 2018
Hour Temp
(f)
RH
(%)
Solar Rad.
(MJ/m2)
Rainfall
(in)
Wind
(mph)
5/10/2018 12:00 AM 71 60 0 0 2.75
5/10/2018 1:00 AM 70 64 0 0 4.06
5/10/2018 2:00 AM 71 51 0 0 5.26
5/10/2018 3:00 AM 72 51 0 0 7.44
5/10/2018 4:00 AM 70 55 0 0 5.82
5/10/2018 5:00 AM 67 62 0 0 4.79
5/10/2018 6:00 AM 65 62 0 0 3.48
5/10/2018 7:00 AM 64 68 0.02 0 4.62
5/10/2018 8:00 AM 65 75 0.42 0 6.5
5/10/2018 9:00 AM 69 70 1.17 0 7.6
5/10/2018 10:00 AM 72 61 1.8 0 5.04
5/10/2018 11:00 AM 76 52 2.36 0 3.5
5/10/2018 12:00 PM 78 47 2.65 0 7.91
5/10/2018 1:00 PM 80 42 2.96 0 10.74
5/10/2018 2:00 PM 81 41 2.92 0 10.1
5/10/2018 3:00 PM 82 41 2.78 0 10.48
5/10/2018 4:00 PM 83 43 2.4 0 10.6
5/10/2018 5:00 PM 83 44 2.03 0 11.42
5/10/2018 6:00 PM 82 44 1.2 0 12.06
5/10/2018 7:00 PM 81 47 0.83 0 11.06
5/10/2018 8:00 PM 80 49 0.21 0 9.98
5/10/2018 9:00 PM 78 51 0.01 0 7.68
5/10/2018 10:00 PM 76 53 0 0 5.05
5/10/2018 11:00 PM 74 59 0 0 5.28
Data Summary 74 53 23.76 0.00 7.22